createdAt,value
2017-05-10T00:00:51.171Z,13.07
2017-05-10T00:03:17.880Z,13.52
2017-05-10T00:05:44.742Z,15.00
2017-05-10T00:08:11.475Z,13.80
2017-05-10T00:10:38.183Z,13.70
2017-05-10T00:13:05.017Z,13.65
2017-05-10T00:15:31.720Z,13.82
2017-05-10T00:17:58.430Z,13.75
2017-05-10T00:20:25.387Z,13.78
2017-05-10T00:22:52.116Z,13.07
2017-05-10T00:28:10.814Z,16.23
2017-05-10T00:30:37.450Z,14.33
2017-05-10T00:33:04.125Z,14.60
2017-05-10T00:35:38.365Z,16.08
2017-05-10T00:38:05.082Z,16.13
2017-05-10T00:40:31.762Z,15.10
2017-05-10T00:42:59.763Z,13.90
2017-05-10T00:45:26.413Z,14.15
2017-05-10T00:47:53.157Z,12.52
2017-05-10T00:50:19.773Z,13.87
2017-05-10T00:52:46.370Z,13.23
2017-05-10T00:55:13.714Z,12.00
2017-05-10T00:57:40.451Z,13.73
2017-05-10T01:00:07.044Z,12.80
2017-05-10T01:02:33.665Z,13.93
2017-05-10T01:05:01.053Z,12.90
2017-05-10T01:07:27.652Z,13.43
2017-05-10T01:09:54.253Z,13.92
2017-05-10T01:12:20.907Z,13.75
2017-05-10T01:14:47.500Z,14.43
2017-05-10T01:17:14.090Z,13.50
2017-05-10T01:19:40.836Z,12.95
2017-05-10T01:22:07.424Z,13.35
2017-05-10T01:24:34.756Z,15.38
2017-05-10T01:27:01.376Z,13.15
2017-05-10T01:29:27.965Z,14.42
2017-05-10T01:31:54.562Z,13.32
2017-05-10T01:34:21.189Z,13.88
2017-05-10T01:36:47.788Z,15.88
2017-05-10T01:39:15.121Z,14.82
2017-05-10T01:41:41.869Z,14.53
2017-05-10T01:44:08.484Z,15.08
2017-05-10T01:46:35.249Z,15.77
2017-05-10T01:49:01.882Z,15.98
2017-05-10T01:51:28.474Z,14.17
2017-05-10T01:53:55.801Z,13.87
2017-05-10T01:56:22.436Z,13.82
2017-05-10T01:58:49.052Z,12.70
2017-05-10T02:01:15.665Z,12.57
2017-05-10T02:03:43.157Z,14.73
2017-05-10T02:06:09.772Z,12.77
2017-05-10T02:08:36.382Z,13.18
2017-05-10T02:11:03.009Z,13.88
2017-05-10T02:13:29.655Z,13.38
2017-05-10T02:15:56.307Z,14.70
2017-05-10T02:18:23.061Z,14.65
2017-05-10T02:20:49.832Z,14.03
2017-05-10T02:23:16.952Z,13.93
2017-05-10T02:25:43.978Z,13.82
2017-05-10T02:28:10.803Z,13.82
2017-05-10T02:30:37.744Z,13.82
2017-05-10T02:33:05.034Z,14.20
2017-05-10T02:35:32.209Z,14.82
2017-05-10T02:37:59.326Z,15.12
2017-05-10T02:40:26.674Z,14.47
2017-05-10T02:42:54.693Z,14.85
2017-05-10T02:45:21.328Z,14.43
2017-05-10T02:47:48.125Z,15.00
2017-05-10T02:50:15.057Z,14.85
2017-05-10T02:52:41.675Z,15.18
2017-05-10T02:55:08.458Z,15.12
2017-05-10T02:57:36.467Z,15.73
2017-05-10T03:00:03.102Z,14.28
2017-05-10T03:02:29.780Z,15.70
2017-05-10T03:04:56.412Z,15.80
2017-05-10T03:07:37.603Z,16.55
2017-05-10T03:10:21.696Z,14.70
2017-05-10T03:12:51.137Z,15.07
2017-05-10T03:19:20.546Z,12.85
2017-05-10T03:22:14.373Z,12.92
2017-05-10T03:25:14.353Z,12.93
2017-05-10T03:31:14.647Z,13.22
2017-05-10T03:33:42.579Z,14.13
2017-05-10T03:36:09.185Z,14.20
2017-05-10T03:38:35.900Z,14.83
2017-05-10T03:41:02.522Z,13.45
2017-05-10T03:43:29.126Z,14.82
2017-05-10T03:45:55.913Z,14.25
2017-05-10T03:48:22.669Z,14.73
2017-05-10T03:50:49.268Z,15.13
2017-05-10T03:53:16.366Z,15.45
2017-05-10T03:55:43.069Z,13.30
2017-05-10T03:58:10.041Z,15.43
2017-05-10T04:00:36.871Z,12.92
2017-05-10T04:03:04.190Z,14.50
2017-05-10T04:05:30.809Z,14.92
2017-05-10T04:08:10.725Z,14.95
2017-05-10T04:10:37.706Z,14.53
2017-05-10T04:13:05.166Z,16.28
2017-05-10T04:22:18.949Z,13.17
2017-05-10T04:24:50.666Z,15.02
2017-05-10T04:27:17.297Z,14.93
2017-05-10T04:29:47.598Z,15.42
2017-05-10T04:35:09.070Z,15.70
2017-05-10T04:37:36.318Z,14.62
2017-05-10T04:45:17.441Z,16.13
2017-05-10T04:47:47.213Z,16.65
2017-05-10T04:50:13.829Z,16.22
2017-05-10T04:52:40.421Z,16.93
2017-05-10T04:55:07.040Z,17.92
2017-05-10T04:57:33.933Z,17.25
2017-05-10T05:00:00.530Z,18.47
2017-05-10T05:02:27.544Z,17.00
2017-05-10T05:04:54.356Z,17.28
2017-05-10T05:07:27.834Z,17.28
2017-05-10T05:09:56.529Z,17.53
2017-05-10T05:12:33.741Z,18.08
2017-05-10T05:15:14.548Z,18.17
2017-05-10T05:17:43.517Z,19.13
2017-05-10T05:20:12.085Z,21.07
2017-05-10T05:22:39.273Z,18.43
2017-05-10T05:25:07.094Z,17.15
2017-05-10T05:27:34.677Z,17.90
2017-05-10T05:30:02.587Z,19.23
2017-05-10T05:32:31.325Z,18.62
2017-05-10T05:35:00.700Z,21.33
2017-05-10T05:37:28.572Z,21.00
2017-05-10T05:39:55.398Z,22.15
2017-05-10T05:42:22.029Z,23.68
2017-05-10T05:44:48.758Z,23.48
2017-05-10T05:47:15.518Z,24.45
2017-05-10T05:49:42.141Z,25.72
2017-05-10T05:52:20.885Z,26.15
2017-05-10T05:54:47.599Z,21.87
2017-05-10T05:57:15.624Z,20.67
2017-05-10T05:59:43.887Z,20.08
2017-05-10T06:02:11.993Z,18.35
2017-05-10T06:04:40.284Z,17.67
2017-05-10T06:07:08.693Z,14.68
2017-05-10T06:09:36.351Z,14.00
2017-05-10T06:12:04.337Z,13.90
2017-05-10T06:14:39.900Z,13.47
2017-05-10T06:19:41.501Z,13.42
2017-05-10T06:22:12.003Z,13.05
2017-05-10T06:24:39.273Z,13.65
2017-05-10T06:27:06.046Z,13.02
2017-05-10T06:29:33.111Z,12.83
2017-05-10T06:32:00.293Z,14.73
2017-05-10T06:34:27.500Z,14.23
2017-05-10T06:36:54.456Z,14.53
2017-05-10T06:39:21.357Z,12.53
2017-05-10T06:41:48.137Z,14.03
2017-05-10T06:44:15.133Z,13.07
2017-05-10T06:46:42.182Z,12.57
2017-05-10T06:49:09.421Z,13.00
2017-05-10T06:51:36.789Z,12.68
2017-05-10T06:54:04.041Z,13.22
2017-05-10T07:00:23.901Z,12.13
2017-05-10T07:02:51.201Z,11.62
2017-05-10T07:05:18.527Z,11.88
2017-05-10T07:07:46.048Z,12.97
2017-05-10T07:10:13.399Z,13.25
2017-05-10T07:15:35.252Z,11.98
2017-05-10T07:18:03.460Z,12.28
2017-05-10T07:20:30.946Z,14.40
2017-05-10T07:22:58.374Z,12.22
2017-05-10T07:25:25.645Z,13.47
2017-05-10T07:27:52.331Z,12.90
2017-05-10T07:32:55.511Z,13.48
2017-05-10T07:35:22.394Z,11.97
2017-05-10T07:37:49.111Z,13.35
2017-05-10T07:40:15.779Z,10.90
2017-05-10T07:42:42.529Z,12.77
2017-05-10T07:45:09.218Z,12.23
2017-05-10T07:47:51.259Z,13.30
2017-05-10T07:50:17.962Z,13.92
2017-05-10T07:52:45.453Z,12.47
2017-05-10T07:55:12.991Z,12.35
2017-05-10T07:57:39.878Z,10.80
2017-05-10T08:00:06.619Z,12.42
2017-05-10T08:02:33.308Z,10.33
2017-05-10T08:04:59.999Z,11.53
2017-05-10T08:07:26.691Z,11.22
2017-05-10T08:09:53.388Z,9.75
2017-05-10T08:12:22.256Z,11.27
2017-05-10T08:14:48.921Z,11.23
2017-05-10T08:17:19.268Z,10.85
2017-05-10T08:19:46.025Z,10.40
2017-05-10T08:22:12.710Z,10.60
2017-05-10T08:24:40.592Z,9.73
2017-05-10T08:27:07.204Z,9.28
2017-05-10T08:29:33.840Z,10.00
2017-05-10T08:32:01.769Z,9.60
2017-05-10T08:34:28.403Z,10.02
2017-05-10T08:36:55.066Z,10.22
2017-05-10T08:39:21.852Z,8.87
2017-05-10T08:41:48.507Z,9.43
2017-05-10T08:44:15.166Z,9.83
2017-05-10T08:46:41.838Z,10.22
2017-05-10T08:49:08.631Z,9.50
2017-05-10T08:51:35.267Z,9.48
2017-05-10T08:54:01.895Z,9.17
2017-05-10T08:56:28.493Z,9.32
2017-05-10T08:58:55.085Z,9.28
2017-05-10T09:01:21.868Z,9.92
2017-05-10T09:03:48.488Z,9.22
2017-05-10T09:06:15.709Z,9.43
2017-05-10T09:08:42.332Z,9.28
2017-05-10T09:11:08.922Z,8.53
2017-05-10T09:13:35.517Z,9.10
2017-05-10T09:16:02.153Z,8.20
2017-05-10T09:18:28.754Z,8.02
2017-05-10T09:20:55.357Z,8.83
2017-05-10T09:23:22.185Z,7.43
2017-05-10T09:25:48.796Z,8.65
2017-05-10T09:28:15.395Z,7.05
2017-05-10T09:30:42.039Z,8.43
2017-05-10T09:33:09.385Z,7.87
2017-05-10T09:35:35.998Z,7.70
2017-05-10T09:38:02.618Z,7.42
2017-05-10T09:40:29.213Z,7.13
2017-05-10T09:42:55.812Z,8.02
2017-05-10T09:45:22.661Z,7.83
2017-05-10T09:47:49.625Z,7.58
2017-05-10T09:50:16.225Z,7.10
2017-05-10T09:52:43.610Z,6.95
2017-05-10T09:55:10.209Z,7.15
2017-05-10T09:57:36.849Z,6.33
2017-05-10T10:00:03.484Z,7.38
2017-05-10T10:02:30.079Z,6.07
2017-05-10T10:04:56.681Z,5.60
2017-05-10T10:07:23.417Z,5.70
2017-05-10T10:09:50.004Z,5.40
2017-05-10T10:12:16.601Z,6.02
2017-05-10T10:14:43.237Z,6.82
2017-05-10T10:17:09.859Z,5.60
2017-05-10T10:19:36.476Z,5.23
2017-05-10T10:22:03.158Z,5.78
2017-05-10T10:24:29.768Z,5.23
2017-05-10T10:26:56.366Z,5.15
2017-05-10T10:29:24.021Z,4.98
2017-05-10T10:31:50.612Z,4.93
2017-05-10T10:34:17.194Z,4.88
2017-05-10T10:36:45.169Z,4.78
2017-05-10T10:39:11.792Z,5.33
2017-05-10T10:41:38.412Z,5.22
2017-05-10T10:44:05.047Z,5.25
2017-05-10T10:46:38.781Z,4.57
2017-05-10T10:49:05.384Z,4.48
2017-05-10T10:51:34.660Z,5.02
2017-05-10T10:54:01.248Z,4.35
2017-05-10T10:56:27.834Z,4.32
2017-05-10T10:58:54.489Z,4.48
2017-05-10T11:01:21.086Z,4.77
2017-05-10T11:03:47.680Z,4.00
2017-05-10T11:06:14.319Z,5.55
2017-05-10T11:08:47.137Z,5.12
2017-05-10T11:11:14.636Z,4.05
2017-05-10T11:13:41.223Z,4.18
2017-05-10T11:16:07.836Z,4.00
2017-05-10T11:18:34.481Z,4.68
2017-05-10T11:21:01.080Z,3.65
2017-05-10T11:23:27.670Z,4.30
2017-05-10T11:25:54.295Z,4.10
2017-05-10T11:28:20.896Z,4.87
2017-05-10T11:30:47.519Z,3.92
2017-05-10T11:33:15.025Z,4.58
2017-05-10T11:35:41.660Z,4.32
2017-05-10T11:38:08.285Z,4.22
2017-05-10T11:40:34.909Z,4.20
2017-05-10T11:43:01.493Z,4.00
2017-05-10T11:45:28.098Z,4.50
2017-05-10T11:47:56.856Z,4.97
2017-05-10T11:50:23.470Z,4.70
2017-05-10T11:52:50.077Z,4.50
2017-05-10T11:55:24.834Z,4.03
2017-05-10T11:57:59.783Z,3.48
2017-05-10T12:00:26.503Z,3.82
2017-05-10T12:02:53.145Z,4.55
2017-05-10T12:05:19.748Z,3.88
2017-05-10T12:07:46.370Z,4.40
2017-05-10T12:10:12.988Z,4.52
2017-05-10T12:12:39.742Z,3.35
2017-05-10T12:15:06.660Z,4.13
2017-05-10T12:17:34.028Z,3.70
2017-05-10T12:20:00.613Z,4.62
2017-05-10T12:22:27.309Z,3.72
2017-05-10T12:24:54.010Z,4.13
2017-05-10T12:27:20.655Z,4.17
2017-05-10T12:29:47.351Z,4.00
2017-05-10T12:32:13.981Z,4.57
2017-05-10T12:34:40.605Z,3.77
2017-05-10T12:37:14.637Z,4.07
2017-05-10T12:39:42.069Z,4.33
2017-05-10T12:42:08.693Z,4.15
2017-05-10T12:44:35.299Z,4.98
2017-05-10T12:47:02.057Z,3.73
2017-05-10T12:49:28.713Z,3.82
2017-05-10T12:51:55.316Z,3.87
2017-05-10T12:54:22.660Z,3.48
2017-05-10T12:56:50.889Z,3.40
2017-05-10T12:59:17.487Z,3.32
2017-05-10T13:01:44.846Z,3.70
2017-05-10T13:04:12.229Z,3.30
2017-05-10T13:06:38.837Z,3.73
2017-05-10T13:09:05.482Z,3.82
2017-05-10T13:11:32.872Z,4.22
2017-05-10T13:13:59.502Z,3.33
2017-05-10T13:16:26.218Z,4.28
2017-05-10T13:19:00.173Z,3.53
2017-05-10T13:21:26.892Z,4.07
2017-05-10T13:23:54.269Z,4.03
2017-05-10T13:26:20.936Z,3.08
2017-05-10T13:28:47.563Z,3.07
2017-05-10T13:31:14.181Z,4.03
2017-05-10T13:33:41.609Z,3.95
2017-05-10T13:36:08.372Z,3.83
2017-05-10T13:38:34.991Z,3.55
2017-05-10T13:41:03.587Z,4.23
2017-05-10T13:43:30.213Z,3.83
2017-05-10T13:45:56.828Z,3.22
2017-05-10T13:48:25.569Z,3.07
2017-05-10T13:50:52.198Z,4.00
2017-05-10T13:53:18.813Z,3.87
2017-05-10T13:55:45.454Z,3.00
2017-05-10T13:58:12.076Z,3.97
2017-05-10T14:00:39.423Z,3.08
2017-05-10T14:03:14.607Z,3.92
2017-05-10T14:05:41.322Z,3.88
2017-05-10T14:08:07.962Z,3.20
2017-05-10T14:10:35.313Z,3.57
2017-05-10T14:13:02.668Z,3.18
2017-05-10T14:15:30.070Z,3.58
2017-05-10T14:17:56.660Z,3.02
2017-05-10T14:20:23.256Z,3.40
2017-05-10T14:22:49.969Z,3.62
2017-05-10T14:25:17.334Z,3.70
2017-05-10T14:27:43.941Z,3.12
2017-05-10T14:30:10.599Z,2.70
2017-05-10T14:32:37.210Z,3.42
2017-05-10T14:35:03.836Z,3.07
2017-05-10T14:37:30.555Z,3.94
2017-05-10T14:39:57.174Z,2.98
2017-05-10T14:42:23.781Z,3.04
2017-05-10T14:44:50.545Z,3.00
2017-05-10T14:47:31.984Z,4.22
2017-05-10T14:49:58.608Z,3.40
2017-05-10T14:52:25.954Z,3.26
2017-05-10T14:54:53.303Z,3.16
2017-05-10T14:57:19.949Z,3.44
2017-05-10T14:59:46.553Z,3.20
2017-05-10T15:02:13.161Z,3.66
2017-05-10T15:04:39.820Z,2.70
2017-05-10T15:07:06.429Z,2.90
2017-05-10T15:09:33.773Z,3.20
2017-05-10T15:12:00.413Z,2.60
2017-05-10T15:14:27.028Z,3.12
2017-05-10T15:16:53.646Z,3.02
2017-05-10T15:19:20.289Z,2.72
2017-05-10T15:21:46.910Z,3.22
2017-05-10T15:24:14.273Z,3.50
2017-05-10T15:26:41.710Z,3.30
2017-05-10T15:29:08.313Z,2.98
2017-05-10T15:31:34.908Z,2.96
2017-05-10T15:34:02.302Z,3.08
2017-05-10T15:36:28.921Z,3.17
2017-05-10T15:38:56.260Z,2.90
2017-05-10T15:41:22.923Z,3.12
2017-05-10T15:43:50.272Z,2.98
2017-05-10T15:46:17.612Z,3.16
2017-05-10T15:48:46.512Z,3.08
2017-05-10T15:51:13.119Z,2.96
2017-05-10T15:53:39.754Z,3.02
2017-05-10T15:56:06.513Z,2.56
2017-05-10T15:58:33.121Z,2.80
2017-05-10T16:00:59.752Z,2.54
2017-05-10T16:03:27.123Z,2.80
2017-05-10T16:05:53.733Z,3.42
2017-05-10T16:08:20.350Z,3.42
2017-05-10T16:10:47.813Z,2.74
2017-05-10T16:13:14.429Z,2.76
2017-05-10T16:15:41.070Z,3.02
2017-05-10T16:18:07.721Z,2.80
2017-05-10T16:20:34.324Z,2.98
2017-05-10T16:23:01.762Z,2.30
2017-05-10T16:25:28.405Z,2.44
2017-05-10T16:27:55.025Z,2.24
2017-05-10T16:30:21.617Z,2.78
2017-05-10T16:32:56.990Z,2.58
2017-05-10T16:35:31.098Z,2.44
2017-05-10T16:37:57.840Z,3.06
2017-05-10T16:40:24.435Z,2.70
2017-05-10T16:42:51.016Z,2.38
2017-05-10T16:45:18.459Z,2.60
2017-05-10T16:47:45.976Z,2.30
2017-05-10T16:50:12.584Z,2.80
2017-05-10T16:52:41.152Z,2.64
2017-05-10T16:55:08.488Z,2.57
2017-05-10T16:57:35.093Z,2.06
2017-05-10T17:00:01.722Z,2.30
2017-05-10T17:02:28.336Z,2.74
2017-05-10T17:04:55.681Z,2.10
2017-05-10T17:07:29.711Z,2.75
2017-05-10T17:09:57.150Z,2.02
2017-05-10T17:12:23.784Z,2.55
2017-05-10T17:14:50.421Z,2.40
2017-05-10T17:17:17.024Z,2.50
2017-05-10T17:19:43.664Z,2.25
2017-05-10T17:22:10.305Z,3.27
2017-05-10T17:24:36.915Z,2.67
2017-05-10T17:27:03.532Z,2.10
2017-05-10T17:29:31.887Z,2.27
2017-05-10T17:31:58.499Z,1.85
2017-05-10T17:34:25.841Z,2.47
2017-05-10T17:36:52.576Z,2.42
2017-05-10T17:39:19.217Z,2.60
2017-05-10T17:41:45.844Z,2.22
2017-05-10T17:44:12.522Z,2.37
2017-05-10T17:46:54.066Z,2.45
2017-05-10T17:49:20.823Z,2.20
2017-05-10T17:51:47.445Z,2.53
2017-05-10T17:54:14.077Z,2.40
2017-05-10T17:56:40.734Z,2.50
2017-05-10T17:59:07.459Z,2.40
2017-05-10T18:01:34.088Z,2.12
2017-05-10T18:04:01.604Z,2.25
2017-05-10T18:06:28.221Z,2.25
2017-05-10T18:08:54.863Z,2.15
2017-05-10T18:11:22.505Z,2.13
2017-05-10T18:13:49.872Z,2.00
2017-05-10T18:16:18.895Z,2.17
2017-05-10T18:18:45.541Z,1.95
2017-05-10T18:21:12.222Z,2.47
2017-05-10T18:23:38.843Z,2.27
2017-05-10T18:26:13.063Z,2.00
2017-05-10T18:28:47.502Z,2.33
2017-05-10T18:31:14.315Z,2.32
2017-05-10T18:33:40.981Z,2.28
2017-05-10T18:36:07.635Z,2.13
2017-05-10T18:38:34.850Z,2.93
2017-05-10T18:41:01.491Z,2.43
2017-05-10T18:43:28.123Z,2.07
2017-05-10T18:45:54.771Z,2.38
2017-05-10T18:48:21.487Z,2.33
2017-05-10T18:50:48.481Z,1.87
2017-05-10T18:53:15.142Z,2.68
2017-05-10T18:56:00.511Z,2.25
2017-05-10T18:58:27.234Z,3.00
2017-05-10T19:00:55.090Z,2.25
2017-05-10T19:03:21.801Z,2.62
2017-05-10T19:08:26.663Z,2.75
2017-05-10T19:10:57.351Z,2.62
2017-05-10T19:13:24.015Z,2.75
2017-05-10T19:15:51.037Z,1.92
2017-05-10T19:18:18.448Z,2.20
2017-05-10T19:20:48.132Z,2.40
2017-05-10T19:23:14.776Z,2.55
2017-05-10T19:25:41.390Z,2.23
2017-05-10T19:28:10.086Z,2.35
2017-05-10T19:30:36.767Z,2.47
2017-05-10T19:33:03.439Z,2.40
2017-05-10T19:35:30.187Z,2.20
2017-05-10T19:37:56.849Z,2.55
2017-05-10T19:40:24.433Z,2.83
2017-05-10T19:42:58.754Z,7.58
2017-05-10T19:45:33.517Z,6.63
2017-05-10T19:48:05.196Z,4.58
2017-05-10T19:50:31.800Z,3.12
2017-05-10T19:53:00.201Z,3.40
2017-05-10T19:55:27.045Z,3.17
2017-05-10T19:57:54.844Z,2.20
2017-05-10T20:00:21.802Z,1.95
2017-05-10T20:02:48.817Z,3.48
2017-05-10T20:05:16.446Z,2.38
2017-05-10T20:08:32.547Z,2.03
2017-05-10T20:11:01.260Z,2.20
2017-05-10T20:13:28.025Z,2.25
2017-05-10T20:15:54.762Z,2.25
2017-05-10T20:18:21.533Z,2.23
2017-05-10T20:20:48.993Z,2.05
2017-05-10T20:23:15.717Z,2.17
2017-05-10T20:25:42.479Z,2.58
2017-05-10T20:28:09.209Z,1.98
2017-05-10T20:30:35.808Z,2.00
2017-05-10T20:33:03.173Z,2.13
2017-05-10T20:35:30.500Z,2.38
2017-05-10T20:37:57.111Z,2.15
2017-05-10T20:40:23.897Z,2.02
2017-05-10T20:42:50.500Z,2.22
2017-05-10T20:45:17.089Z,2.48
2017-05-10T20:47:43.941Z,1.98
2017-05-10T20:50:10.529Z,1.87
2017-05-10T20:52:37.125Z,2.68
2017-05-10T20:55:04.653Z,2.17
2017-05-10T20:57:31.225Z,2.22
2017-05-10T20:59:59.100Z,2.07
2017-05-10T21:02:25.720Z,2.27
2017-05-10T21:04:52.319Z,2.37
2017-05-10T21:07:18.902Z,2.62
2017-05-10T21:09:45.528Z,2.50
2017-05-10T21:12:12.120Z,2.28
2017-05-10T21:14:39.446Z,3.10
2017-05-10T21:17:06.908Z,4.13
2017-05-10T21:19:33.485Z,2.85
2017-05-10T21:22:00.822Z,2.60
2017-05-10T21:24:27.453Z,2.45
2017-05-10T21:26:54.031Z,2.40
2017-05-10T21:29:21.378Z,2.98
2017-05-10T21:31:47.996Z,2.83
2017-05-10T21:34:14.579Z,2.78
2017-05-10T21:36:41.900Z,3.20
2017-05-10T21:39:10.281Z,2.98
2017-05-10T21:41:36.867Z,3.48
2017-05-10T21:44:03.450Z,3.08
2017-05-10T21:46:30.065Z,3.22
2017-05-10T21:48:56.800Z,3.80
2017-05-10T21:51:23.391Z,3.38
2017-05-10T21:53:50.008Z,3.23
2017-05-10T21:56:16.596Z,3.43
2017-05-10T21:58:43.181Z,3.22
2017-05-10T22:01:16.969Z,3.45
2017-05-10T22:03:46.021Z,3.60
2017-05-10T22:06:12.624Z,4.10
2017-05-10T22:08:39.242Z,3.53
2017-05-10T22:11:06.557Z,3.52
2017-05-10T22:13:33.185Z,3.37
2017-05-10T22:15:59.772Z,3.33
2017-05-10T22:18:26.353Z,4.07
2017-05-10T22:20:53.090Z,3.68
2017-05-10T22:23:19.670Z,3.70
2017-05-10T22:25:46.252Z,3.75
2017-05-10T22:28:12.873Z,3.98
2017-05-10T22:30:39.460Z,3.63
2017-05-10T22:33:06.053Z,3.60
2017-05-10T22:35:32.665Z,4.12
2017-05-10T22:37:59.252Z,4.87
2017-05-10T22:40:25.849Z,4.27
2017-05-10T22:42:56.097Z,4.62
2017-05-10T22:45:22.678Z,4.90
2017-05-10T22:47:51.912Z,4.90
2017-05-10T22:50:18.536Z,5.08
2017-05-10T22:52:45.856Z,4.48
2017-05-10T22:55:12.436Z,4.48
2017-05-10T22:57:39.789Z,4.92
2017-05-10T23:00:07.105Z,5.55
2017-05-10T23:02:33.693Z,4.90
2017-05-10T23:05:01.929Z,5.15
2017-05-10T23:07:28.513Z,5.32
2017-05-10T23:09:55.829Z,5.68
2017-05-10T23:12:22.450Z,5.37
2017-05-10T23:14:49.029Z,5.88
2017-05-10T23:17:15.609Z,6.55
2017-05-10T23:19:43.111Z,6.27
2017-05-10T23:22:09.693Z,6.50
2017-05-10T23:24:36.268Z,5.72
2017-05-10T23:27:02.873Z,5.70
2017-05-10T23:29:29.453Z,6.37
2017-05-10T23:31:56.027Z,5.73
2017-05-10T23:34:22.649Z,6.37
2017-05-10T23:36:49.243Z,5.40
2017-05-10T23:39:15.816Z,5.68
2017-05-10T23:41:43.023Z,5.52
2017-05-10T23:44:09.631Z,5.63
2017-05-10T23:46:36.216Z,5.80
2017-05-10T23:49:02.970Z,5.93
2017-05-10T23:51:29.553Z,6.07
2017-05-10T23:53:56.141Z,5.40
2017-05-10T23:56:22.761Z,5.63
2017-05-10T23:58:49.357Z,5.15
